createdAt,value
2023-01-07T00:01:50.283Z,83.89
2023-01-07T00:04:17.147Z,82.75
2023-01-07T00:06:47.456Z,84.04
2023-01-07T00:09:18.648Z,83.25
2023-01-07T00:11:45.913Z,84.09
2023-01-07T00:14:14.481Z,84.24
2023-01-07T00:16:41.642Z,83.14
2023-01-07T00:19:13.072Z,83.36
2023-01-07T00:21:40.164Z,83.62
2023-01-07T00:24:07.980Z,83.38
2023-01-07T00:26:37.005Z,83.22
2023-01-07T00:29:05.452Z,83.25
2023-01-07T00:31:37.903Z,83.33
2023-01-07T00:34:23.761Z,83.17
2023-01-07T00:36:50.640Z,84.49
2023-01-07T00:39:20.735Z,84.48
2023-01-07T00:42:07.542Z,83.47
2023-01-07T00:44:35.455Z,82.87
2023-01-07T00:47:02.399Z,83.22
2023-01-07T00:49:48.483Z,83.75
2023-01-07T00:52:15.321Z,82.59
2023-01-07T00:54:42.173Z,82.75
2023-01-07T00:57:13.285Z,83.61
2023-01-07T00:59:40.067Z,83.03
2023-01-07T01:02:07.010Z,83.66
2023-01-07T01:04:34.059Z,84.31
2023-01-07T01:07:00.946Z,84.49
2023-01-07T01:09:28.040Z,83.72
2023-01-07T01:11:54.966Z,84.29
2023-01-07T01:14:21.931Z,84.01
2023-01-07T01:16:48.777Z,84.16
2023-01-07T01:19:34.436Z,83.54
2023-01-07T01:22:01.320Z,84.41
2023-01-07T01:24:28.208Z,83.24
2023-01-07T01:26:55.119Z,82.31
2023-01-07T01:29:22.051Z,82.64
2023-01-07T01:31:48.943Z,83.70
2023-01-07T01:34:15.867Z,83.22
2023-01-07T01:36:42.678Z,83.66
2023-01-07T01:39:09.460Z,82.96
2023-01-07T01:41:36.684Z,83.26
2023-01-07T01:44:46.361Z,82.54
2023-01-07T01:47:21.053Z,83.15
2023-01-07T01:50:18.433Z,84.28
2023-01-07T01:53:09.630Z,83.35
2023-01-07T01:55:39.255Z,83.78
2023-01-07T01:58:22.078Z,83.39
2023-01-07T02:03:27.508Z,84.52
2023-01-07T02:05:54.528Z,85.03
2023-01-07T02:08:23.440Z,84.13
2023-01-07T02:11:17.661Z,84.68
2023-01-07T02:14:10.184Z,85.00
2023-01-07T02:16:50.480Z,85.68
2023-01-07T02:19:43.247Z,85.45
2023-01-07T02:22:16.147Z,85.72
2023-01-07T02:25:20.110Z,85.60
2023-01-07T02:27:46.968Z,85.81
2023-01-07T02:30:45.648Z,85.91
2023-01-07T02:33:28.285Z,86.21
2023-01-07T02:36:04.138Z,86.63
2023-01-07T02:38:51.208Z,86.08
2023-01-07T02:41:32.868Z,86.83
2023-01-07T02:44:04.196Z,86.80
2023-01-07T02:46:40.221Z,86.37
2023-01-07T02:49:14.355Z,85.29
2023-01-07T02:51:45.237Z,85.25
2023-01-07T02:54:21.593Z,84.22
2023-01-07T02:57:41.879Z,85.40
2023-01-07T03:00:26.863Z,84.06
2023-01-07T03:03:18.682Z,84.33
2023-01-07T03:05:51.495Z,84.37
2023-01-07T03:08:49.411Z,84.91
2023-01-07T03:11:17.655Z,85.03
2023-01-07T03:13:50.359Z,84.19
2023-01-07T03:16:34.783Z,83.16
2023-01-07T03:19:10.023Z,82.87
2023-01-07T03:21:38.237Z,82.98
2023-01-07T03:24:07.943Z,84.08
2023-01-07T03:26:43.095Z,84.48
2023-01-07T03:29:13.639Z,84.86
2023-01-07T03:31:46.927Z,83.73
2023-01-07T03:34:17.126Z,83.81
2023-01-07T03:36:53.248Z,83.85
2023-01-07T03:39:24.639Z,83.94
2023-01-07T03:42:10.352Z,84.45
2023-01-07T03:44:37.745Z,83.95
2023-01-07T03:47:23.885Z,84.39
2023-01-07T03:49:50.710Z,84.29
2023-01-07T03:52:17.672Z,85.09
2023-01-07T03:54:44.555Z,83.31
2023-01-07T03:57:11.328Z,84.19
2023-01-07T03:59:38.157Z,85.70
2023-01-07T04:02:05.134Z,85.25
2023-01-07T04:04:32.580Z,84.71
2023-01-07T04:06:59.532Z,84.65
2023-01-07T04:09:26.559Z,84.05
2023-01-07T04:11:53.693Z,84.19
2023-01-07T04:14:38.974Z,83.49
2023-01-07T04:17:06.028Z,84.12
2023-01-07T04:19:33.460Z,84.40
2023-01-07T04:22:00.406Z,83.40
2023-01-07T04:24:27.359Z,84.48
2023-01-07T04:26:54.155Z,84.86
2023-01-07T04:29:21.173Z,85.53
2023-01-07T04:31:48.016Z,85.94
2023-01-07T04:34:14.827Z,85.80
2023-01-07T04:36:41.737Z,85.51
2023-01-07T04:39:08.605Z,86.07
2023-01-07T04:41:35.405Z,85.95
2023-01-07T04:44:02.315Z,85.82
2023-01-07T04:46:29.215Z,85.38
2023-01-07T04:48:56.344Z,85.52
2023-01-07T04:51:23.200Z,85.71
2023-01-07T04:53:49.998Z,86.40
2023-01-07T04:56:17.066Z,86.56
2023-01-07T04:58:44.137Z,86.58
2023-01-07T05:01:11.617Z,86.21
2023-01-07T05:03:38.797Z,86.01
2023-01-07T05:06:05.855Z,85.73
2023-01-07T05:08:32.928Z,86.29
2023-01-07T05:11:00.186Z,86.71
2023-01-07T05:13:27.089Z,85.00
2023-01-07T05:15:53.960Z,85.01
2023-01-07T05:18:20.816Z,83.70
2023-01-07T05:20:50.629Z,83.71
2023-01-07T05:23:17.416Z,84.09
2023-01-07T05:25:44.581Z,84.60
2023-01-07T05:28:12.385Z,84.64
2023-01-07T05:30:39.694Z,84.34
2023-01-07T05:33:07.737Z,84.38
2023-01-07T05:35:35.988Z,83.82
2023-01-07T05:38:02.844Z,84.01
2023-01-07T05:40:29.821Z,85.39
2023-01-07T05:42:56.982Z,85.00
2023-01-07T05:45:23.843Z,84.13
2023-01-07T05:47:50.780Z,84.62
2023-01-07T05:50:17.797Z,84.33
2023-01-07T05:52:44.607Z,84.26
2023-01-07T05:55:12.476Z,83.69
2023-01-07T05:57:39.386Z,84.21
2023-01-07T06:00:06.937Z,83.57
2023-01-07T06:02:33.871Z,84.66
2023-01-07T06:05:00.818Z,83.91
2023-01-07T06:07:30.399Z,84.42
2023-01-07T06:09:57.227Z,83.67
2023-01-07T06:12:24.198Z,83.52
2023-01-07T06:14:51.018Z,83.13
2023-01-07T06:17:18.037Z,83.91
2023-01-07T06:19:44.953Z,83.21
2023-01-07T06:22:11.988Z,82.53
2023-01-07T06:24:40.277Z,82.54
2023-01-07T06:27:07.215Z,81.72
2023-01-07T06:29:34.055Z,82.04
2023-01-07T06:32:00.918Z,81.04
2023-01-07T06:34:27.775Z,80.32
2023-01-07T06:36:54.526Z,75.34
2023-01-07T06:39:21.323Z,71.29
2023-01-07T06:41:48.188Z,65.36
2023-01-07T06:44:15.036Z,63.25
2023-01-07T06:46:41.919Z,59.01
2023-01-07T06:49:09.199Z,55.95
2023-01-07T06:51:36.071Z,53.11
2023-01-07T06:54:03.387Z,52.00
2023-01-07T06:56:30.308Z,53.39
2023-01-07T06:58:57.105Z,50.71
2023-01-07T07:01:24.185Z,48.71
2023-01-07T07:03:51.109Z,46.80
2023-01-07T07:06:17.912Z,44.48
2023-01-07T07:09:03.018Z,43.93
2023-01-07T07:11:30.026Z,43.00
2023-01-07T07:13:57.038Z,41.36
2023-01-07T07:16:24.361Z,40.63
2023-01-07T07:18:51.426Z,40.00
2023-01-07T07:21:18.216Z,38.95
2023-01-07T07:23:45.465Z,37.55
2023-01-07T07:26:12.338Z,37.22
2023-01-07T07:28:39.598Z,36.53
2023-01-07T07:31:06.541Z,37.01
2023-01-07T07:33:33.381Z,35.84
2023-01-07T07:36:00.140Z,33.11
2023-01-07T07:38:27.017Z,33.48
2023-01-07T07:40:53.844Z,34.26
2023-01-07T07:43:20.779Z,33.00
2023-01-07T07:45:47.673Z,33.02
2023-01-07T07:48:15.850Z,33.53
2023-01-07T07:50:42.754Z,32.75
2023-01-07T07:53:10.677Z,31.88
2023-01-07T07:55:39.054Z,31.83
2023-01-07T07:58:06.603Z,30.38
2023-01-07T08:00:33.657Z,30.62
2023-01-07T08:03:01.506Z,31.29
2023-01-07T08:05:29.060Z,31.74
2023-01-07T08:07:56.419Z,31.72
2023-01-07T08:10:23.246Z,31.78
2023-01-07T08:12:50.847Z,31.51
2023-01-07T08:15:17.873Z,31.30
2023-01-07T08:17:44.899Z,33.75
2023-01-07T08:20:12.335Z,34.87
2023-01-07T08:22:39.564Z,35.35
2023-01-07T08:25:06.859Z,36.28
2023-01-07T08:27:33.709Z,36.74
2023-01-07T08:30:00.682Z,37.19
2023-01-07T08:32:27.609Z,36.00
2023-01-07T08:34:54.519Z,37.13
2023-01-07T08:37:21.462Z,36.99
2023-01-07T08:39:48.277Z,36.99
2023-01-07T08:42:15.068Z,38.12
2023-01-07T08:44:42.018Z,36.41
2023-01-07T08:47:08.881Z,37.91
2023-01-07T08:49:35.657Z,38.25
2023-01-07T08:52:02.593Z,38.35
2023-01-07T08:54:29.377Z,38.52
2023-01-07T08:56:56.248Z,38.42
2023-01-07T08:59:23.178Z,37.78
2023-01-07T09:01:50.216Z,38.19
2023-01-07T09:04:17.200Z,38.58
2023-01-07T09:06:44.077Z,38.21
2023-01-07T09:09:12.076Z,38.96
2023-01-07T09:11:38.925Z,38.76
2023-01-07T09:14:05.998Z,39.45
2023-01-07T09:16:32.901Z,39.19
2023-01-07T09:18:59.885Z,40.48
2023-01-07T09:21:26.881Z,39.61
2023-01-07T09:23:53.670Z,39.79
2023-01-07T09:26:20.796Z,39.74
2023-01-07T09:28:47.707Z,39.71
2023-01-07T09:31:14.548Z,39.54
2023-01-07T09:33:41.578Z,39.12
2023-01-07T09:36:08.836Z,40.00
2023-01-07T09:38:35.679Z,39.35
2023-01-07T09:41:02.778Z,39.12
2023-01-07T09:44:01.183Z,38.52
2023-01-07T09:46:30.992Z,38.86
2023-01-07T09:49:02.991Z,39.05
2023-01-07T09:51:40.195Z,39.16
2023-01-07T09:54:29.093Z,38.48
2023-01-07T09:56:56.075Z,39.34
2023-01-07T09:59:22.902Z,38.86
2023-01-07T10:02:18.719Z,38.74
2023-01-07T10:05:33.457Z,38.90
2023-01-07T10:08:31.374Z,39.06
2023-01-07T10:11:08.134Z,37.64
2023-01-07T10:14:05.835Z,38.10
2023-01-07T10:16:48.816Z,38.90
2023-01-07T10:19:23.807Z,38.25
2023-01-07T10:22:03.139Z,38.47
2023-01-07T10:24:39.375Z,38.92
2023-01-07T10:27:15.449Z,38.59
2023-01-07T10:29:46.754Z,38.52
2023-01-07T10:32:18.248Z,37.99
2023-01-07T10:34:51.981Z,37.76
2023-01-07T10:37:33.884Z,38.10
2023-01-07T10:40:07.919Z,37.97
2023-01-07T10:43:16.664Z,38.31
2023-01-07T10:46:04.539Z,38.86
2023-01-07T10:48:43.332Z,38.27
2023-01-07T10:51:19.155Z,38.49
2023-01-07T10:54:11.094Z,38.57
2023-01-07T10:56:40.873Z,38.69
2023-01-07T10:59:15.536Z,39.12
2023-01-07T11:02:03.489Z,39.64
2023-01-07T11:04:30.507Z,39.37
2023-01-07T11:07:04.545Z,39.91
2023-01-07T11:09:35.625Z,40.17
2023-01-07T11:12:16.288Z,40.80
2023-01-07T11:14:43.858Z,40.31
2023-01-07T11:17:37.351Z,40.09
2023-01-07T11:20:05.690Z,40.96
2023-01-07T11:22:51.279Z,40.37
2023-01-07T11:25:29.056Z,39.92
2023-01-07T11:28:16.469Z,41.25
2023-01-07T11:30:44.016Z,40.86
2023-01-07T11:33:22.267Z,41.54
2023-01-07T11:35:54.875Z,41.28
2023-01-07T11:38:31.424Z,41.74
2023-01-07T11:40:59.921Z,40.84
2023-01-07T11:43:35.147Z,41.19
2023-01-07T11:46:20.225Z,41.39
2023-01-07T11:49:01.441Z,41.80
2023-01-07T11:51:43.038Z,42.21
2023-01-07T11:54:21.891Z,42.40
2023-01-07T11:56:49.704Z,42.67
2023-01-07T11:59:26.569Z,43.02
2023-01-07T12:01:55.981Z,42.51
2023-01-07T12:04:36.445Z,42.67
2023-01-07T12:07:15.711Z,43.31
2023-01-07T12:09:45.533Z,43.23
2023-01-07T12:12:37.304Z,43.27
2023-01-07T12:15:24.067Z,43.11
2023-01-07T12:18:03.401Z,43.79
2023-01-07T12:20:38.391Z,44.47
2023-01-07T12:23:20.275Z,44.75
2023-01-07T12:25:52.866Z,45.29
2023-01-07T12:28:50.519Z,44.87
2023-01-07T12:31:17.170Z,45.17
2023-01-07T12:33:50.069Z,45.18
2023-01-07T12:36:49.675Z,45.52
2023-01-07T12:39:33.051Z,45.20
2023-01-07T12:42:25.547Z,44.74
2023-01-07T12:45:01.282Z,44.63
2023-01-07T12:47:36.665Z,45.63
2023-01-07T12:50:18.571Z,45.48
2023-01-07T12:52:50.837Z,45.57
2023-01-07T12:55:22.832Z,45.46
2023-01-07T12:58:32.999Z,45.73
2023-01-07T13:01:06.095Z,46.80
2023-01-07T13:03:47.385Z,45.84
2023-01-07T13:06:35.198Z,45.53
2023-01-07T13:09:09.277Z,45.33
2023-01-07T13:12:41.638Z,45.81
2023-01-07T13:15:26.861Z,46.86
2023-01-07T13:17:59.321Z,45.64
2023-01-07T13:20:39.431Z,46.68
2023-01-07T13:23:18.945Z,45.52
2023-01-07T13:26:21.292Z,46.11
2023-01-07T13:29:04.493Z,45.58
2023-01-07T13:31:45.670Z,45.73
2023-01-07T13:34:24.291Z,45.82
2023-01-07T13:37:01.071Z,46.41
2023-01-07T13:39:52.192Z,46.07
2023-01-07T13:42:33.994Z,46.36
2023-01-07T13:45:24.307Z,47.03
2023-01-07T13:47:54.780Z,46.40
2023-01-07T13:50:44.400Z,45.90
2023-01-07T13:53:17.316Z,45.83
2023-01-07T13:55:46.405Z,47.54
2023-01-07T13:58:31.418Z,46.64
2023-01-07T14:01:16.161Z,46.43
2023-01-07T14:03:54.218Z,46.55
2023-01-07T14:06:20.949Z,46.18
2023-01-07T14:09:13.813Z,45.54
2023-01-07T14:12:21.188Z,45.96
2023-01-07T14:15:20.069Z,44.43
2023-01-07T14:17:55.987Z,43.13
2023-01-07T14:20:52.800Z,43.25
2023-01-07T14:23:32.723Z,43.55
2023-01-07T14:26:28.738Z,42.99
2023-01-07T14:29:07.859Z,43.18
2023-01-07T14:31:35.066Z,42.99
2023-01-07T14:34:05.571Z,43.23
2023-01-07T14:37:08.635Z,43.33
2023-01-07T14:39:37.077Z,43.62
2023-01-07T14:42:42.094Z,43.74
2023-01-07T14:45:36.690Z,43.54
2023-01-07T14:48:34.079Z,43.74
2023-01-07T14:51:28.498Z,43.39
2023-01-07T14:54:24.688Z,43.78
2023-01-07T14:57:22.838Z,43.78
2023-01-07T15:00:02.115Z,43.99
2023-01-07T15:02:55.330Z,44.31
2023-01-07T15:05:43.208Z,44.61
2023-01-07T15:08:32.102Z,44.63
2023-01-07T15:11:19.820Z,45.04
2023-01-07T15:14:16.419Z,45.87
2023-01-07T15:16:47.148Z,46.50
2023-01-07T15:19:14.097Z,46.34
2023-01-07T15:22:22.677Z,47.42
2023-01-07T15:25:12.948Z,47.03
2023-01-07T15:28:05.606Z,47.63
2023-01-07T15:30:57.176Z,48.02
2023-01-07T15:33:45.580Z,48.39
2023-01-07T15:36:15.865Z,48.72
2023-01-07T15:38:50.331Z,48.93
2023-01-07T15:41:37.639Z,49.34
2023-01-07T15:44:07.721Z,49.01
2023-01-07T15:46:40.548Z,49.85
2023-01-07T15:49:10.441Z,49.64
2023-01-07T15:51:40.257Z,50.49
2023-01-07T15:54:32.037Z,50.08
2023-01-07T15:57:07.901Z,50.92
2023-01-07T15:59:39.129Z,51.22
2023-01-07T16:02:24.603Z,51.40
2023-01-07T16:04:57.659Z,51.66
2023-01-07T16:07:29.017Z,51.65
2023-01-07T16:09:57.430Z,53.14
2023-01-07T16:12:34.325Z,53.57
2023-01-07T16:15:04.685Z,54.36
2023-01-07T16:17:31.976Z,55.13
2023-01-07T16:20:19.797Z,55.77
2023-01-07T16:22:46.748Z,56.65
2023-01-07T16:25:22.260Z,56.77
2023-01-07T16:27:50.990Z,56.87
2023-01-07T16:30:18.552Z,57.45
2023-01-07T16:32:46.158Z,57.25
2023-01-07T16:35:38.067Z,58.66
2023-01-07T16:38:05.769Z,58.41
2023-01-07T16:40:37.782Z,58.80
2023-01-07T16:43:25.444Z,59.19
2023-01-07T16:46:38.816Z,59.76
2023-01-07T16:49:11.698Z,60.55
2023-01-07T16:51:45.357Z,61.72
2023-01-07T16:54:40.322Z,62.85
2023-01-07T16:57:30.196Z,62.71
2023-01-07T16:59:58.909Z,63.23
2023-01-07T17:02:38.186Z,62.99
2023-01-07T17:05:18.933Z,62.54
2023-01-07T17:07:57.518Z,63.77
2023-01-07T17:10:31.448Z,63.30
2023-01-07T17:13:04.746Z,64.89
2023-01-07T17:15:31.586Z,65.92
2023-01-07T17:18:13.294Z,66.47
2023-01-07T17:20:48.939Z,66.02
2023-01-07T17:23:27.764Z,65.91
2023-01-07T17:26:12.663Z,66.10
2023-01-07T17:28:49.180Z,66.29
2023-01-07T17:31:15.974Z,67.47
2023-01-07T17:33:43.213Z,67.40
2023-01-07T17:36:18.636Z,68.52
2023-01-07T17:38:45.543Z,67.85
2023-01-07T17:41:37.141Z,68.27
2023-01-07T17:44:04.961Z,68.50
2023-01-07T17:46:31.995Z,70.11
2023-01-07T17:49:01.073Z,68.82
2023-01-07T17:51:28.503Z,70.85
2023-01-07T17:53:59.273Z,69.79
2023-01-07T17:56:26.323Z,70.50
2023-01-07T17:58:55.815Z,70.70
2023-01-07T18:01:24.011Z,71.63
2023-01-07T18:03:52.062Z,72.06
2023-01-07T18:06:25.570Z,71.06
2023-01-07T18:08:53.101Z,71.37
2023-01-07T18:11:42.196Z,72.00
2023-01-07T18:14:13.218Z,71.51
2023-01-07T18:16:40.739Z,71.33
2023-01-07T18:19:08.593Z,72.30
2023-01-07T18:21:35.419Z,72.68
2023-01-07T18:24:02.303Z,72.28
2023-01-07T18:26:29.157Z,72.72
2023-01-07T18:28:55.987Z,72.91
2023-01-07T18:31:22.837Z,73.09
2023-01-07T18:33:50.120Z,75.37
2023-01-07T18:36:16.963Z,73.05
2023-01-07T18:38:44.389Z,73.97
2023-01-07T18:41:11.322Z,74.08
2023-01-07T18:43:38.252Z,74.29
2023-01-07T18:46:08.604Z,73.89
2023-01-07T18:48:37.256Z,73.61
2023-01-07T18:51:10.431Z,74.54
2023-01-07T18:53:37.757Z,74.64
2023-01-07T18:56:08.611Z,74.31
2023-01-07T18:58:35.398Z,74.60
2023-01-07T19:01:04.300Z,75.47
2023-01-07T19:03:31.498Z,74.31
2023-01-07T19:06:00.087Z,75.35
2023-01-07T19:08:27.702Z,75.09
2023-01-07T19:10:54.655Z,74.89
2023-01-07T19:13:22.401Z,74.62
2023-01-07T19:15:49.197Z,75.94
2023-01-07T19:18:16.049Z,76.11
2023-01-07T19:20:42.966Z,76.76
2023-01-07T19:23:09.813Z,76.45
2023-01-07T19:25:36.819Z,77.42
2023-01-07T19:28:22.459Z,76.99
2023-01-07T19:30:49.325Z,77.14
2023-01-07T19:33:16.145Z,76.66
2023-01-07T19:35:42.984Z,77.23
2023-01-07T19:38:09.995Z,77.57
2023-01-07T19:40:36.972Z,77.14
2023-01-07T19:43:03.731Z,76.35
2023-01-07T19:45:30.646Z,77.07
2023-01-07T19:47:57.788Z,77.62
2023-01-07T19:50:24.596Z,76.80
2023-01-07T19:52:51.524Z,76.49
2023-01-07T19:55:18.399Z,76.72
2023-01-07T19:57:45.196Z,77.92
2023-01-07T20:00:12.437Z,77.55
2023-01-07T20:02:39.296Z,77.20
2023-01-07T20:05:06.538Z,76.34
2023-01-07T20:07:35.117Z,77.24
2023-01-07T20:10:02.061Z,76.94
2023-01-07T20:12:28.806Z,75.84
2023-01-07T20:14:55.693Z,76.28
2023-01-07T20:17:22.604Z,75.97
2023-01-07T20:19:49.395Z,76.20
2023-01-07T20:22:16.343Z,76.37
2023-01-07T20:24:43.413Z,76.51
2023-01-07T20:27:10.277Z,76.92
2023-01-07T20:29:39.019Z,76.85
2023-01-07T20:32:08.318Z,76.76
2023-01-07T20:34:35.535Z,77.34
2023-01-07T20:37:04.564Z,77.50
2023-01-07T20:39:31.476Z,78.10
2023-01-07T20:41:58.326Z,78.20
2023-01-07T20:44:25.138Z,78.10
2023-01-07T20:46:52.089Z,78.09
2023-01-07T20:49:19.053Z,77.55
2023-01-07T20:51:46.380Z,78.14
2023-01-07T20:54:13.767Z,77.63
2023-01-07T20:56:59.385Z,77.64
2023-01-07T20:59:26.373Z,77.50
2023-01-07T21:01:53.478Z,79.08
2023-01-07T21:04:20.524Z,78.97
2023-01-07T21:06:47.378Z,79.22
2023-01-07T21:09:15.370Z,79.22
2023-01-07T21:11:43.383Z,79.80
2023-01-07T21:14:10.193Z,79.08
2023-01-07T21:16:37.495Z,78.45
2023-01-07T21:19:04.386Z,79.15
2023-01-07T21:21:31.379Z,78.52
2023-01-07T21:23:58.976Z,77.57
2023-01-07T21:26:26.164Z,78.66
2023-01-07T21:28:56.118Z,78.14
2023-01-07T21:31:42.246Z,77.90
2023-01-07T21:34:10.556Z,77.15
2023-01-07T21:36:37.536Z,77.45
2023-01-07T21:39:04.517Z,76.88
2023-01-07T21:41:31.399Z,76.67
2023-01-07T21:43:58.283Z,77.60
2023-01-07T21:46:25.236Z,76.86
2023-01-07T21:48:52.096Z,77.09
2023-01-07T21:51:24.606Z,76.20
2023-01-07T21:53:52.551Z,75.66
2023-01-07T21:56:19.885Z,76.45
2023-01-07T21:58:46.883Z,75.27
2023-01-07T22:01:14.321Z,75.76
2023-01-07T22:03:45.246Z,77.08
2023-01-07T22:06:25.775Z,77.93
2023-01-07T22:09:14.634Z,78.04
2023-01-07T22:11:42.150Z,77.27
2023-01-07T22:14:16.989Z,77.08
2023-01-07T22:16:45.492Z,77.91
2023-01-07T22:19:13.696Z,77.85
2023-01-07T22:21:40.653Z,77.98
2023-01-07T22:24:26.235Z,77.97
2023-01-07T22:26:53.867Z,78.35
2023-01-07T22:29:39.382Z,78.58
2023-01-07T22:32:06.195Z,79.28
2023-01-07T22:34:33.099Z,79.67
2023-01-07T22:37:05.836Z,79.33
2023-01-07T22:39:43.545Z,79.60
2023-01-07T22:42:33.405Z,79.99
2023-01-07T22:45:06.904Z,80.13
2023-01-07T22:47:40.935Z,80.15
2023-01-07T22:50:09.498Z,80.19
2023-01-07T22:52:36.838Z,79.70
2023-01-07T22:55:22.193Z,79.94
2023-01-07T22:57:49.311Z,79.38
2023-01-07T23:00:38.095Z,79.58
2023-01-07T23:03:05.197Z,80.69
2023-01-07T23:05:32.168Z,80.36
2023-01-07T23:07:59.042Z,80.69
2023-01-07T23:10:25.903Z,81.18
2023-01-07T23:12:52.745Z,81.59
2023-01-07T23:15:19.666Z,80.60
2023-01-07T23:17:49.541Z,80.54
2023-01-07T23:20:16.423Z,80.34
2023-01-07T23:22:43.383Z,80.86
2023-01-07T23:25:10.170Z,80.87
2023-01-07T23:27:39.274Z,81.04
2023-01-07T23:30:06.930Z,80.85
2023-01-07T23:32:33.843Z,81.26
2023-01-07T23:35:00.927Z,82.04
2023-01-07T23:37:27.883Z,81.52
2023-01-07T23:39:54.691Z,80.86
2023-01-07T23:42:21.661Z,79.67
2023-01-07T23:44:48.566Z,79.89
2023-01-07T23:47:15.746Z,79.67
2023-01-07T23:49:42.517Z,80.28
2023-01-07T23:52:09.408Z,79.24
2023-01-07T23:54:36.219Z,80.02
2023-01-07T23:57:03.032Z,79.56
2023-01-07T23:59:29.867Z,80.01
